createdAt,value
2022-09-04T00:00:20.801Z,77.00
2022-09-04T00:02:59.321Z,77.40
2022-09-04T00:05:35.388Z,77.40
2022-09-04T00:08:25.287Z,77.30
2022-09-04T00:11:03.338Z,77.40
2022-09-04T00:13:51.228Z,77.30
2022-09-04T00:16:24.727Z,77.40
2022-09-04T00:19:03.376Z,77.60
2022-09-04T00:21:35.351Z,77.60
2022-09-04T00:24:15.615Z,77.80
2022-09-04T00:26:45.580Z,77.60
2022-09-04T00:29:31.898Z,77.70
2022-09-04T00:32:23.733Z,77.50
2022-09-04T00:35:04.563Z,77.80
2022-09-04T00:37:59.624Z,78.30
2022-09-04T00:40:52.933Z,78.30
2022-09-04T00:43:26.196Z,77.80
2022-09-04T00:46:10.284Z,77.90
2022-09-04T00:48:55.942Z,77.70
2022-09-04T00:51:32.222Z,77.90
2022-09-04T00:54:52.890Z,77.90
2022-09-04T00:57:38.470Z,78.10
2022-09-04T01:00:18.746Z,78.00
2022-09-04T01:03:04.082Z,77.80
2022-09-04T01:05:40.514Z,77.60
2022-09-04T01:08:42.757Z,77.40
2022-09-04T01:11:40.726Z,77.80
2022-09-04T01:14:42.111Z,78.10
2022-09-04T01:17:12.948Z,77.80
2022-09-04T01:19:39.924Z,77.90
2022-09-04T01:22:46.629Z,78.40
2022-09-04T01:25:47.845Z,78.30
2022-09-04T01:28:54.049Z,78.60
2022-09-04T01:31:43.549Z,78.40
2022-09-04T01:34:39.656Z,78.50
2022-09-04T01:37:28.571Z,78.60
2022-09-04T01:40:12.056Z,78.50
2022-09-04T01:42:41.996Z,79.00
2022-09-04T01:45:10.747Z,79.20
2022-09-04T01:47:47.078Z,79.50
2022-09-04T01:50:23.897Z,79.30
2022-09-04T01:53:12.273Z,79.40
2022-09-04T01:55:59.461Z,79.90
2022-09-04T01:58:53.223Z,80.00
2022-09-04T02:01:22.837Z,80.10
2022-09-04T02:03:58.551Z,80.30
2022-09-04T02:07:01.315Z,80.20
2022-09-04T02:10:06.484Z,80.30
2022-09-04T02:12:51.205Z,80.30
2022-09-04T02:15:39.341Z,80.40
2022-09-04T02:18:31.448Z,80.60
2022-09-04T02:21:31.759Z,80.10
2022-09-04T02:24:14.119Z,80.20
2022-09-04T02:27:04.427Z,80.10
2022-09-04T02:29:46.320Z,80.10
2022-09-04T02:32:19.078Z,80.10
2022-09-04T02:35:02.782Z,79.90
2022-09-04T02:37:34.565Z,79.90
2022-09-04T02:40:14.067Z,79.90
2022-09-04T02:42:59.591Z,79.90
2022-09-04T02:45:36.623Z,80.00
2022-09-04T02:48:18.585Z,80.30
2022-09-04T02:51:13.757Z,80.40
2022-09-04T02:53:49.947Z,80.30
2022-09-04T02:56:25.070Z,80.70
2022-09-04T02:59:42.427Z,80.80
2022-09-04T03:02:25.597Z,80.80
2022-09-04T03:05:01.734Z,81.00
2022-09-04T03:07:39.568Z,80.80
2022-09-04T03:10:22.860Z,80.90
2022-09-04T03:12:52.546Z,81.00
2022-09-04T03:15:24.756Z,81.20
2022-09-04T03:18:02.829Z,81.20
2022-09-04T03:20:36.971Z,81.10
2022-09-04T03:23:29.530Z,81.70
2022-09-04T03:26:27.771Z,80.90
2022-09-04T03:29:12.261Z,80.80
2022-09-04T03:31:58.690Z,81.20
2022-09-04T03:34:44.168Z,81.50
2022-09-04T03:37:30.611Z,81.60
2022-09-04T03:40:18.564Z,81.50
2022-09-04T03:43:13.308Z,81.60
2022-09-04T03:45:58.808Z,81.80
2022-09-04T03:48:28.819Z,81.80
2022-09-04T03:51:04.825Z,81.70
2022-09-04T03:53:45.939Z,81.60
2022-09-04T03:56:45.045Z,81.50
2022-09-04T03:59:31.060Z,81.60
2022-09-04T04:02:09.577Z,81.80
2022-09-04T04:04:48.471Z,81.80
2022-09-04T04:07:48.055Z,81.90
2022-09-04T04:10:19.603Z,81.90
2022-09-04T04:13:21.519Z,81.90
2022-09-04T04:16:09.630Z,82.40
2022-09-04T04:19:14.299Z,82.20
2022-09-04T04:22:02.332Z,82.20
2022-09-04T04:24:54.259Z,82.20
2022-09-04T04:27:48.758Z,82.10
2022-09-04T04:30:17.668Z,82.10
2022-09-04T04:33:32.507Z,82.30
2022-09-04T04:36:24.934Z,82.30
2022-09-04T04:38:57.009Z,82.20
2022-09-04T04:42:02.611Z,82.30
2022-09-04T04:45:10.019Z,82.60
2022-09-04T04:47:52.799Z,82.80
2022-09-04T04:50:33.513Z,82.90
2022-09-04T04:53:14.680Z,83.00
2022-09-04T04:55:57.458Z,83.10
2022-09-04T04:58:36.627Z,83.20
2022-09-04T05:01:35.796Z,83.50
2022-09-04T05:04:23.151Z,83.80
2022-09-04T05:07:10.251Z,83.90
2022-09-04T05:10:20.671Z,83.90
2022-09-04T05:13:14.136Z,83.60
2022-09-04T05:16:08.475Z,83.30
2022-09-04T05:18:52.784Z,83.10
2022-09-04T05:21:26.691Z,83.30
2022-09-04T05:24:16.826Z,83.70
2022-09-04T05:26:54.909Z,83.90
2022-09-04T05:29:47.650Z,84.00
2022-09-04T05:32:28.973Z,83.70
2022-09-04T05:35:14.031Z,83.70
2022-09-04T05:38:06.858Z,84.10
2022-09-04T05:40:59.140Z,84.10
2022-09-04T05:43:54.839Z,83.80
2022-09-04T05:46:30.634Z,83.50
2022-09-04T05:49:20.807Z,83.50
2022-09-04T05:52:29.791Z,83.50
2022-09-04T05:55:19.862Z,83.10
2022-09-04T05:58:02.120Z,82.80
2022-09-04T06:01:08.710Z,83.90
2022-09-04T06:04:20.757Z,82.80
2022-09-04T06:07:02.617Z,83.30
2022-09-04T06:09:45.601Z,83.30
2022-09-04T06:12:49.424Z,83.30
2022-09-04T06:15:22.722Z,83.40
2022-09-04T06:18:08.162Z,83.50
2022-09-04T06:21:15.038Z,83.00
2022-09-04T06:23:59.806Z,83.20
2022-09-04T06:26:50.893Z,82.60
2022-09-04T06:29:54.748Z,82.90
2022-09-04T06:32:49.171Z,82.90
2022-09-04T06:35:57.384Z,83.10
2022-09-04T06:38:33.264Z,84.00
2022-09-04T06:41:12.183Z,83.40
2022-09-04T06:43:41.766Z,83.40
2022-09-04T06:46:24.067Z,83.10
2022-09-04T06:48:53.965Z,83.00
2022-09-04T06:51:54.965Z,83.50
2022-09-04T06:54:32.410Z,84.20
2022-09-04T06:57:14.783Z,83.50
2022-09-04T07:00:06.148Z,84.30
2022-09-04T07:02:42.487Z,85.00
2022-09-04T07:05:47.164Z,83.80
2022-09-04T07:08:39.508Z,83.80
2022-09-04T07:11:53.944Z,83.40
2022-09-04T07:14:48.292Z,85.00
2022-09-04T07:17:40.604Z,84.30
2022-09-04T07:20:45.739Z,85.50
2022-09-04T07:23:50.778Z,84.40
2022-09-04T07:26:28.352Z,84.10
2022-09-04T07:29:26.088Z,85.00
2022-09-04T07:32:20.588Z,83.50
2022-09-04T07:35:02.951Z,83.00
2022-09-04T07:37:40.873Z,82.70
2022-09-04T07:40:14.299Z,85.20
2022-09-04T07:42:51.091Z,85.80
2022-09-04T07:45:30.011Z,84.40
2022-09-04T07:48:11.196Z,85.00
2022-09-04T07:51:18.514Z,84.70
2022-09-04T07:54:18.727Z,83.50
2022-09-04T07:56:54.562Z,84.70
2022-09-04T07:59:34.303Z,83.50
2022-09-04T08:02:07.037Z,85.90
2022-09-04T08:04:46.315Z,85.60
2022-09-04T08:07:27.744Z,83.40
2022-09-04T08:10:18.881Z,84.30
2022-09-04T08:12:48.997Z,82.80
2022-09-04T08:15:22.103Z,82.30
2022-09-04T08:17:59.112Z,82.30
2022-09-04T08:20:38.604Z,84.10
2022-09-04T08:23:30.625Z,84.60
2022-09-04T08:26:14.575Z,84.20
2022-09-04T08:28:57.042Z,84.50
2022-09-04T08:31:24.299Z,82.30
2022-09-04T08:34:14.003Z,82.70
2022-09-04T08:36:51.978Z,83.90
2022-09-04T08:39:40.849Z,83.00
2022-09-04T08:42:21.970Z,85.30
2022-09-04T08:45:42.064Z,85.80
2022-09-04T08:48:32.477Z,85.30
2022-09-04T08:51:05.293Z,84.30
2022-09-04T08:53:45.800Z,84.40
2022-09-04T08:56:31.612Z,83.60
2022-09-04T08:59:07.485Z,83.70
2022-09-04T09:01:57.986Z,84.40
2022-09-04T09:05:02.562Z,83.00
2022-09-04T09:07:41.428Z,82.50
2022-09-04T09:10:25.141Z,83.10
2022-09-04T09:13:13.812Z,84.00
2022-09-04T09:16:19.265Z,87.20
2022-09-04T09:19:24.176Z,84.00
2022-09-04T09:22:08.399Z,83.80
2022-09-04T09:25:07.404Z,83.40
2022-09-04T09:27:46.200Z,83.80
2022-09-04T09:30:16.661Z,83.80
2022-09-04T09:33:21.625Z,82.30
2022-09-04T09:36:12.188Z,82.40
2022-09-04T09:39:12.964Z,81.40
2022-09-04T09:42:01.726Z,83.40
2022-09-04T09:44:41.665Z,83.90
2022-09-04T09:47:09.646Z,81.30
2022-09-04T09:50:00.888Z,81.90
2022-09-04T09:52:31.016Z,81.20
2022-09-04T09:55:35.605Z,81.10
2022-09-04T09:58:34.708Z,81.50
2022-09-04T10:01:25.953Z,81.20
2022-09-04T10:04:28.728Z,81.10
2022-09-04T10:07:41.995Z,81.20
2022-09-04T10:10:29.470Z,82.90
2022-09-04T10:13:23.709Z,83.40
2022-09-04T10:16:12.079Z,81.50
2022-09-04T10:19:08.044Z,81.20
2022-09-04T10:22:00.186Z,79.00
2022-09-04T10:25:02.496Z,80.30
2022-09-04T10:27:54.697Z,78.70
2022-09-04T10:30:29.010Z,78.20
2022-09-04T10:33:34.865Z,78.40
2022-09-04T10:36:30.937Z,80.60
2022-09-04T10:39:49.569Z,79.10
2022-09-04T10:42:19.941Z,79.20
2022-09-04T10:45:14.968Z,77.60
2022-09-04T10:48:10.034Z,77.50
2022-09-04T10:51:15.745Z,75.40
2022-09-04T10:53:42.580Z,77.70
2022-09-04T10:56:19.455Z,75.90
2022-09-04T10:59:10.322Z,75.80
2022-09-04T11:01:55.029Z,74.60
2022-09-04T11:05:03.397Z,74.50
2022-09-04T11:07:36.805Z,73.80
2022-09-04T11:10:36.711Z,73.00
2022-09-04T11:13:03.682Z,74.00
2022-09-04T11:16:15.144Z,72.80
2022-09-04T11:19:03.846Z,72.40
2022-09-04T11:21:58.954Z,73.70
2022-09-04T11:24:54.652Z,73.00
2022-09-04T11:27:49.256Z,73.60
2022-09-04T11:30:23.813Z,71.10
2022-09-04T11:33:17.871Z,71.80
2022-09-04T11:36:14.676Z,73.00
2022-09-04T11:39:19.170Z,72.50
2022-09-04T11:42:05.881Z,71.10
2022-09-04T11:45:03.888Z,70.60
2022-09-04T11:48:01.095Z,71.20
2022-09-04T11:51:01.522Z,70.40
2022-09-04T11:54:06.374Z,70.30
2022-09-04T11:56:57.575Z,71.60
2022-09-04T11:59:53.930Z,71.40
2022-09-04T12:02:47.611Z,72.70
2022-09-04T12:05:43.221Z,70.80
2022-09-04T12:08:25.173Z,69.80
2022-09-04T12:11:19.879Z,70.20
2022-09-04T12:14:17.667Z,71.40
2022-09-04T12:16:59.909Z,70.10
2022-09-04T12:20:08.096Z,70.10
2022-09-04T12:22:54.743Z,68.80
2022-09-04T12:25:49.851Z,69.10
2022-09-04T12:28:37.924Z,69.20
2022-09-04T12:31:07.958Z,71.60
2022-09-04T12:34:07.062Z,69.40
2022-09-04T12:37:13.591Z,69.30
2022-09-04T12:40:13.020Z,69.30
2022-09-04T12:42:57.526Z,68.70
2022-09-04T12:45:38.223Z,69.30
2022-09-04T12:48:19.093Z,69.40
2022-09-04T12:51:09.470Z,71.10
2022-09-04T12:53:52.566Z,68.10
2022-09-04T12:56:42.220Z,68.60
2022-09-04T12:59:26.748Z,67.80
2022-09-04T13:02:21.900Z,67.00
2022-09-04T13:04:57.877Z,67.50
2022-09-04T13:07:43.399Z,67.50
2022-09-04T13:10:38.284Z,68.30
2022-09-04T13:13:35.667Z,67.00
2022-09-04T13:16:40.584Z,67.00
2022-09-04T13:19:50.888Z,67.00
2022-09-04T13:22:51.360Z,66.70
2022-09-04T13:25:27.291Z,66.90
2022-09-04T13:27:59.912Z,65.90
2022-09-04T13:30:29.333Z,65.70
2022-09-04T13:33:18.879Z,63.50
2022-09-04T13:36:04.504Z,63.80
2022-09-04T13:38:43.472Z,64.30
2022-09-04T13:41:35.136Z,63.80
2022-09-04T13:44:41.036Z,63.40
2022-09-04T13:47:16.318Z,63.40
2022-09-04T13:49:56.391Z,63.70
2022-09-04T13:52:36.369Z,64.80
2022-09-04T13:55:10.102Z,64.00
2022-09-04T13:57:57.538Z,63.60
2022-09-04T14:00:31.264Z,64.40
2022-09-04T14:03:11.411Z,64.60
2022-09-04T14:05:38.925Z,64.60
2022-09-04T14:08:13.224Z,64.20
2022-09-04T14:11:01.073Z,64.50
2022-09-04T14:14:21.142Z,64.30
2022-09-04T14:16:50.199Z,64.40
2022-09-04T14:19:42.537Z,63.50
2022-09-04T14:22:24.221Z,63.30
2022-09-04T14:25:11.859Z,63.70
2022-09-04T14:27:43.500Z,63.90
2022-09-04T14:30:24.301Z,64.20
2022-09-04T14:33:13.312Z,64.80
2022-09-04T14:36:10.274Z,65.30
2022-09-04T14:38:54.538Z,66.00
2022-09-04T14:41:54.457Z,66.10
2022-09-04T14:44:59.781Z,65.80
2022-09-04T14:47:37.179Z,65.40
2022-09-04T14:50:08.960Z,65.20
2022-09-04T14:52:48.158Z,64.60
2022-09-04T14:55:23.773Z,64.80
2022-09-04T14:57:57.734Z,65.40
2022-09-04T15:00:24.998Z,65.70
2022-09-04T15:03:24.554Z,65.40
2022-09-04T15:05:58.524Z,64.90
2022-09-04T15:08:40.367Z,64.90
2022-09-04T15:11:31.363Z,65.20
2022-09-04T15:14:12.372Z,65.40
2022-09-04T15:16:50.697Z,67.10
2022-09-04T15:19:33.902Z,67.00
2022-09-04T15:22:24.369Z,66.90
2022-09-04T15:25:11.492Z,68.90
2022-09-04T15:27:49.922Z,68.50
2022-09-04T15:30:28.748Z,68.30
2022-09-04T15:33:10.831Z,67.70
2022-09-04T15:35:40.502Z,68.90
2022-09-04T15:38:21.934Z,68.40
2022-09-04T15:41:15.671Z,68.80
2022-09-04T15:44:03.463Z,68.30
2022-09-04T15:46:48.496Z,68.30
2022-09-04T15:49:53.173Z,67.80
2022-09-04T15:52:31.181Z,69.80
2022-09-04T15:55:24.125Z,69.60
2022-09-04T15:58:09.152Z,68.30
2022-09-04T16:00:38.937Z,67.00
2022-09-04T16:03:23.172Z,67.60
2022-09-04T16:06:30.034Z,68.00
2022-09-04T16:09:10.032Z,69.40
2022-09-04T16:11:42.652Z,67.50
2022-09-04T16:14:24.889Z,67.80
2022-09-04T16:16:56.043Z,67.80
2022-09-04T16:19:36.143Z,68.30
2022-09-04T16:22:43.933Z,68.70
2022-09-04T16:25:38.867Z,69.60
2022-09-04T16:28:12.296Z,69.60
2022-09-04T16:30:41.759Z,70.70
2022-09-04T16:33:28.513Z,69.50
2022-09-04T16:36:05.270Z,70.50
2022-09-04T16:38:44.031Z,70.50
2022-09-04T16:41:25.566Z,71.40
2022-09-04T16:44:14.360Z,71.00
2022-09-04T16:47:03.033Z,71.00
2022-09-04T16:49:52.049Z,71.40
2022-09-04T16:53:12.538Z,71.60
2022-09-04T16:55:58.020Z,72.60
2022-09-04T16:58:35.463Z,73.70
2022-09-04T17:01:28.723Z,74.40
2022-09-04T17:04:13.735Z,74.60
2022-09-04T17:06:54.416Z,74.20
2022-09-04T17:09:40.463Z,74.80
2022-09-04T17:12:41.103Z,75.50
2022-09-04T17:15:17.203Z,75.70
2022-09-04T17:17:48.516Z,77.50
2022-09-04T17:22:50.012Z,77.00
2022-09-04T17:28:58.184Z,77.10
2022-09-04T17:29:10.497Z,77.60
2022-09-04T17:29:44.571Z,78.00
2022-09-04T17:32:38.261Z,78.00
2022-09-04T17:40:37.935Z,78.30
2022-09-04T17:40:40.274Z,78.40
2022-09-04T17:41:52.009Z,79.00
2022-09-04T17:44:46.131Z,79.00
2022-09-04T17:47:42.607Z,79.50
2022-09-04T17:50:30.045Z,79.60
2022-09-04T17:53:02.593Z,79.70
2022-09-04T17:55:34.926Z,79.90
2022-09-04T17:58:22.322Z,80.10
2022-09-04T18:01:14.855Z,80.30
2022-09-04T18:04:22.638Z,80.30
2022-09-04T18:07:28.846Z,80.30
2022-09-04T18:10:08.600Z,80.50
2022-09-04T18:13:08.834Z,80.70
2022-09-04T18:16:18.625Z,80.80
2022-09-04T18:18:52.440Z,81.90
2022-09-04T18:21:28.733Z,81.10
2022-09-04T18:24:13.432Z,81.10
2022-09-04T18:26:43.706Z,81.50
2022-09-04T18:29:58.233Z,82.10
2022-09-04T18:37:16.157Z,82.10
2022-09-04T18:37:21.163Z,82.30
2022-09-04T18:38:34.003Z,82.30
2022-09-04T18:44:41.808Z,82.30
2022-09-04T18:50:30.998Z,82.50
2022-09-04T18:50:43.188Z,82.80
2022-09-04T18:50:51.229Z,82.70
2022-09-04T18:53:00.474Z,83.00
2022-09-04T18:55:51.409Z,83.20
2022-09-04T18:58:36.243Z,83.40
2022-09-04T19:01:27.207Z,83.50
2022-09-04T19:04:21.761Z,83.70
2022-09-04T19:07:07.887Z,83.80
2022-09-04T19:10:04.823Z,83.70
2022-09-04T19:12:50.775Z,83.90
2022-09-04T19:15:37.054Z,84.00
2022-09-04T19:18:22.286Z,84.10
2022-09-04T19:21:05.105Z,84.40
2022-09-04T19:23:41.366Z,84.50
2022-09-04T19:26:29.425Z,84.50
2022-09-04T19:29:17.355Z,84.40
2022-09-04T19:31:50.898Z,84.80
2022-09-04T19:34:28.635Z,85.00
2022-09-04T19:37:30.172Z,84.90
2022-09-04T19:46:17.657Z,85.90
2022-09-04T19:46:19.715Z,85.40
2022-09-04T19:46:43.198Z,85.30
2022-09-04T19:52:33.569Z,85.50
2022-09-04T19:53:34.441Z,86.10
2022-09-04T19:55:23.922Z,85.50
2022-09-04T19:58:10.951Z,86.40
2022-09-04T20:00:49.562Z,85.70
2022-09-04T20:03:35.890Z,85.70
2022-09-04T20:06:19.908Z,86.20
2022-09-04T20:09:10.940Z,86.10
2022-09-04T20:11:56.103Z,85.90
2022-09-04T20:14:25.772Z,85.90
2022-09-04T20:16:58.689Z,86.00
2022-09-04T20:19:37.529Z,86.00
2022-09-04T20:22:27.225Z,85.90
2022-09-04T20:25:19.209Z,85.60
2022-09-04T20:28:00.273Z,86.00
2022-09-04T20:30:29.855Z,85.90
2022-09-04T20:33:06.367Z,86.00
2022-09-04T20:35:42.541Z,86.10
2022-09-04T20:38:23.348Z,86.20
2022-09-04T20:40:57.908Z,86.20
2022-09-04T20:43:39.953Z,86.40
2022-09-04T20:48:49.731Z,86.60
2022-09-04T20:52:52.408Z,87.10
2022-09-04T20:52:55.886Z,87.20
2022-09-04T20:55:57.260Z,86.90
2022-09-04T21:03:06.534Z,86.80
2022-09-04T21:03:18.898Z,86.90
2022-09-04T21:05:29.615Z,86.80
2022-09-04T21:08:34.341Z,87.10
2022-09-04T21:11:40.990Z,87.10
2022-09-04T21:14:46.438Z,87.10
2022-09-04T21:17:56.197Z,87.50
2022-09-04T21:20:32.067Z,87.80
2022-09-04T21:23:05.614Z,87.80
2022-09-04T21:25:57.185Z,87.80
2022-09-04T21:28:32.869Z,87.90
2022-09-04T21:31:06.724Z,88.50
2022-09-04T21:34:02.689Z,88.00
2022-09-04T21:36:46.722Z,87.90
2022-09-04T21:39:19.962Z,88.10
2022-09-04T21:42:17.289Z,88.20
2022-09-04T21:44:59.677Z,88.40
2022-09-04T21:48:17.834Z,88.30
2022-09-04T21:51:29.218Z,88.60
2022-09-04T21:55:39.072Z,88.50
2022-09-04T22:02:40.981Z,88.90
2022-09-04T22:02:43.609Z,88.70
2022-09-04T22:04:27.375Z,88.60
2022-09-04T22:10:06.648Z,88.40
2022-09-04T22:13:39.855Z,88.40
2022-09-04T22:13:53.035Z,88.40
2022-09-04T22:16:39.240Z,88.40
2022-09-04T22:19:26.830Z,88.50
2022-09-04T22:22:18.669Z,88.80
2022-09-04T22:25:06.445Z,88.90
2022-09-04T22:28:09.072Z,88.80
2022-09-04T22:31:02.729Z,89.10
2022-09-04T22:34:14.917Z,89.30
2022-09-04T22:37:00.830Z,89.20
2022-09-04T22:39:43.650Z,89.20
2022-09-04T22:42:33.444Z,89.20
2022-09-04T22:45:12.349Z,89.20
2022-09-04T22:48:14.701Z,88.90
2022-09-04T22:51:08.856Z,88.90
2022-09-04T22:53:51.441Z,88.90
2022-09-04T22:56:34.266Z,88.90
2022-09-04T22:59:26.774Z,89.00
2022-09-04T23:02:16.110Z,89.00
2022-09-04T23:05:09.345Z,89.30
2022-09-04T23:13:43.117Z,89.50
2022-09-04T23:13:54.156Z,90.00
2022-09-04T23:14:06.759Z,90.00
2022-09-04T23:16:47.106Z,90.00
2022-09-04T23:26:32.481Z,89.80
2022-09-04T23:26:33.994Z,90.00
2022-09-04T23:26:43.937Z,90.00
2022-09-04T23:29:20.693Z,90.10
2022-09-04T23:32:10.058Z,90.00
2022-09-04T23:35:14.775Z,90.20
2022-09-04T23:38:10.669Z,90.40
2022-09-04T23:40:53.578Z,90.40
2022-09-04T23:43:35.173Z,90.50
2022-09-04T23:46:24.232Z,90.60
2022-09-04T23:49:15.879Z,90.70
2022-09-04T23:52:04.054Z,90.70
2022-09-04T23:55:03.257Z,90.80
2022-09-04T23:57:50.364Z,90.90
